Time;durP1;ratioP1;P1;durP2;ratioP2;P2;SDS_P1;SDS_P2;PMS_P1;PMS_P2;Temp;Humidity;BMP_temperature;BMP_pressure;BME280_temperature;BME280_humidity;BME280_pressure;Samples;Min_cycle;Max_cycle;Signal;HPM_P1;HPM_P2
2023/09/20 00:00:15;;;;;;;9.52;4.30;;;;;;;17.46;78.42;100764.16;5053633;28;20028;-62
2023/09/20 00:02:41;;;;;;;7.75;3.72;;;;;;;17.43;78.54;100764.44;5071372;28;20365;-62
2023/09/20 00:05:15;;;;;;;10.70;4.20;;;;;;;17.38;78.98;100763.19;5035744;28;20511;-63
2023/09/20 00:07:43;;;;;;;7.05;4.10;;;;;;;17.39;79.03;100754.13;5050827;28;20365;-62
2023/09/20 00:10:12;;;;;;;8.82;3.60;;;;;;;17.37;79.25;100758.81;5035726;28;20506;-62
2023/09/20 00:12:40;;;;;;;8.60;3.47;;;;;;;17.32;79.32;100761.91;5034909;28;20110;-63
2023/09/20 00:15:10;;;;;;;13.82;4.40;;;;;;;17.25;79.92;100761.63;5051105;28;20021;-62
2023/09/20 00:17:36;;;;;;;7.80;3.92;;;;;;;17.25;79.97;100758.94;5034516;28;20384;-62
2023/09/20 00:20:12;;;;;;;9.57;3.95;;;;;;;17.23;80.08;100760.91;5054053;28;20384;-63
2023/09/20 00:22:44;;;;;;;7.63;3.85;;;;;;;17.19;79.96;100747.91;5033426;28;20112;-62
2023/09/20 00:25:11;;;;;;;11.80;4.20;;;;;;;17.22;80.24;100764.59;5055474;28;20076;-62
2023/09/20 00:27:38;;;;;;;8.27;4.10;;;;;;;17.10;80.68;100751.47;5056827;28;20111;-62
2023/09/20 00:30:09;;;;;;;10.50;4.00;;;;;;;17.12;80.87;100755.72;5045448;28;20029;-62
2023/09/20 00:32:39;;;;;;;10.38;4.50;;;;;;;17.07;80.99;100744.53;5056986;28;20374;-62
2023/09/20 00:35:10;;;;;;;6.88;3.85;;;;;;;17.19;80.64;100754.13;5059729;28;20059;-63
2023/09/20 00:37:42;;;;;;;7.60;4.13;;;;;;;17.13;81.10;100754.72;5063792;28;20020;-62
2023/09/20 00:40:21;;;;;;;11.07;4.50;;;;;;;17.03;81.29;100740.44;5058478;28;20040;-62
2023/09/20 00:42:51;;;;;;;9.82;4.22;;;;;;;17.10;81.01;100748.78;5059871;28;20024;-62
2023/09/20 00:45:20;;;;;;;8.73;4.20;;;;;;;17.08;81.69;100748.06;5040682;28;20633;-62
2023/09/20 00:47:48;;;;;;;;;;;;;;;17.19;80.30;100747.91;5049328;28;20025;-61
2023/09/20 00:50:17;;;;;;;8.73;4.10;;;;;;;17.19;81.07;100745.22;5045755;28;19985;-62
2023/09/20 00:52:44;;;;;;;10.77;3.90;;;;;;;17.09;81.36;100747.94;5058374;28;20020;-62
2023/09/20 00:55:22;;;;;;;9.70;4.07;;;;;;;17.13;81.54;100745.81;5061698;28;20495;-62
2023/09/20 00:57:51;;;;;;;7.07;3.83;;;;;;;17.10;81.71;100741.56;5071823;28;20547;-62
2023/09/20 01:00:21;;;;;;;8.57;4.32;;;;;;;17.11;81.61;100737.88;5059705;28;20492;-62
2023/09/20 01:02:52;;;;;;;7.50;3.97;;;;;;;17.08;81.61;100742.69;5052181;28;20029;-63
2023/09/20 01:05:21;;;;;;;8.07;3.63;;;;;;;17.13;81.85;100752.03;5063580;28;20028;-63
2023/09/20 01:07:50;;;;;;;8.32;3.92;;;;;;;17.06;82.20;100755.41;5048685;28;20388;-62
2023/09/20 01:10:16;;;;;;;8.45;3.53;;;;;;;17.05;82.27;100751.88;5067654;28;20040;-63
2023/09/20 01:12:43;;;;;;;9.05;4.35;;;;;;;17.07;82.02;100755.28;5032931;28;20025;-62
2023/09/20 01:15:10;;;;;;;7.78;3.90;;;;;;;17.05;82.01;100746.50;5049853;28;20369;-62
2023/09/20 01:17:45;;;;;;;8.25;3.80;;;;;;;17.03;82.70;100749.34;5060250;28;20383;-62
2023/09/20 01:20:17;;;;;;;10.02;4.13;;;;;;;16.93;82.69;100728.81;5045116;28;20028;-62
2023/09/20 01:22:43;;;;;;;8.13;4.13;;;;;;;16.93;83.39;100732.34;5052898;28;20188;-62
2023/09/20 01:25:11;;;;;;;7.75;3.97;;;;;;;17.00;82.87;100735.31;5050206;28;20489;-62
2023/09/20 01:27:38;;;;;;;9.23;4.00;;;;;;;16.96;82.94;100731.22;5055518;28;20024;-62
2023/09/20 01:30:08;;;;;;;9.68;4.28;;;;;;;17.01;82.88;100734.34;5034385;28;20024;-63
2023/09/20 01:32:34;;;;;;;8.20;3.70;;;;;;;16.96;83.01;100731.22;5050942;28;20423;-62
2023/09/20 01:35:02;;;;;;;8.88;4.28;;;;;;;17.02;83.36;100733.34;5066789;28;20501;-62
2023/09/20 01:37:30;;;;;;;10.38;4.13;;;;;;;16.96;83.28;100726.69;5034512;28;20021;-62
2023/09/20 01:39:58;;;;;;;9.68;3.80;;;;;;;16.97;83.57;100717.66;5055082;28;20036;-62
2023/09/20 01:42:26;;;;;;;6.75;3.85;;;;;;;16.97;83.58;100725.72;5038927;28;20024;-63
2023/09/20 01:44:52;;;;;;;8.43;3.60;;;;;;;16.98;83.73;100722.03;5045449;28;20032;-62
2023/09/20 01:47:17;;;;;;;11.77;4.60;;;;;;;16.92;83.99;100717.22;5048008;28;20021;-62
2023/09/20 01:49:43;;;;;;;11.43;4.57;;;;;;;17.00;83.75;100732.63;5049334;28;20033;-62
2023/09/20 01:52:10;;;;;;;11.23;4.15;;;;;;;16.97;84.12;100717.66;5060455;28;20501;-62
2023/09/20 01:54:39;;;;;;;9.07;4.13;;;;;;;17.05;83.67;100714.25;5051002;28;20029;-62
2023/09/20 01:57:07;;;;;;;13.43;4.32;;;;;;;17.01;83.94;100705.63;5052023;28;20135;-63
2023/09/20 01:59:32;;;;;;;9.93;4.38;;;;;;;17.10;83.63;100720.06;5037591;28;20876;-62
2023/09/20 02:01:57;;;;;;;9.55;3.90;;;;;;;17.06;83.57;100699.84;5053159;28;20048;-62
2023/09/20 02:04:23;;;;;;;7.88;4.22;;;;;;;17.09;83.22;100690.63;5047950;28;20033;-63
2023/09/20 02:06:49;;;;;;;5.63;3.45;;;;;;;17.17;84.00;100698.81;5051364;28;20024;-63
2023/09/20 02:09:16;;;;;;;10.35;4.82;;;;;;;17.13;84.22;100694.75;5033075;28;20047;-63
2023/09/20 02:11:41;;;;;;;8.93;4.03;;;;;;;17.19;83.70;100703.06;5053910;28;20024;-62
2023/09/20 02:14:07;;;;;;;9.75;3.88;;;;;;;17.21;83.80;100697.56;5062029;28;20438;-63
2023/09/20 02:16:32;;;;;;;10.23;4.32;;;;;;;17.24;83.55;100698.13;5053144;28;20112;-63
2023/09/20 02:18:58;;;;;;;11.02;4.25;;;;;;;17.18;83.65;100681.72;5044498;28;20131;-63
2023/09/20 02:21:23;;;;;;;8.80;3.83;;;;;;;17.29;83.37;100692.28;5066134;28;20487;-63
2023/09/20 02:23:56;;;;;;;6.78;3.90;;;;;;;17.22;83.41;100680.44;5055514;28;20037;-63
2023/09/20 02:26:22;;;;;;;10.68;4.53;;;;;;;17.26;83.70;100679.16;5062166;28;20479;-63
2023/09/20 02:28:47;;;;;;;6.93;3.55;;;;;;;17.28;83.70;100677.16;5053860;28;20060;-62
2023/09/20 02:31:13;;;;;;;10.13;4.07;;;;;;;17.29;83.51;100676.16;5049721;28;20057;-63
2023/09/20 02:33:39;;;;;;;8.07;4.22;;;;;;;17.32;83.61;100681.25;5049859;28;20397;-63
2023/09/20 02:36:05;;;;;;;11.27;4.35;;;;;;;17.25;83.35;100662.16;5048964;28;20033;-63
2023/09/20 02:38:30;;;;;;;8.23;4.22;;;;;;;17.35;83.65;100678.28;5031630;28;20404;-63
2023/09/20 02:40:57;;;;;;;10.40;4.43;;;;;;;17.31;83.70;100678.72;5042118;28;20090;-63
2023/09/20 02:43:22;;;;;;;10.55;4.18;;;;;;;17.34;83.32;100676.59;5058053;28;20040;-63
2023/09/20 02:45:50;;;;;;;9.63;4.47;;;;;;;17.23;83.81;100664.16;5059681;28;20021;-63
2023/09/20 02:48:16;;;;;;;8.30;4.10;;;;;;;17.30;83.98;100674.34;5052229;28;20017;-63
2023/09/20 02:50:44;;;;;;;7.97;3.72;;;;;;;17.26;83.80;100663.00;5033499;28;20045;-63
2023/09/20 02:53:09;;;;;;;9.75;4.05;;;;;;;17.22;84.06;100661.63;5063614;28;20488;-63
2023/09/20 02:55:35;;;;;;;13.18;4.30;;;;;;;17.23;83.83;100669.53;5067805;28;20035;-63
2023/09/20 02:58:00;;;;;;;10.90;4.68;;;;;;;17.16;83.98;100646.06;5053887;28;20021;-62
2023/09/20 03:00:31;;;;;;;7.75;4.25;;;;;;;17.20;84.25;100656.38;5032958;28;20086;-62
2023/09/20 03:03:00;;;;;;;10.82;4.10;;;;;;;17.22;84.07;100649.03;5066214;28;20052;-63
2023/09/20 03:05:34;;;;;;;10.57;4.78;;;;;;;17.16;84.55;100657.66;5053107;28;20032;-63
2023/09/20 03:08:13;;;;;;;7.93;4.20;;;;;;;17.11;84.83;100665.31;5062980;28;20446;-63
2023/09/20 03:10:41;;;;;;;9.73;4.38;;;;;;;17.06;85.09;100648.78;5046321;28;20025;-63
2023/09/20 03:13:10;;;;;;;7.43;4.00;;;;;;;17.08;85.15;100648.63;5054514;28;20033;-63
2023/09/20 03:15:43;;;;;;;9.32;4.00;;;;;;;17.02;85.60;100653.56;5036129;28;20063;-63
2023/09/20 03:18:09;;;;;;;8.32;4.40;;;;;;;16.94;85.76;100631.97;5068253;28;20131;-63
2023/09/20 03:20:35;;;;;;;9.65;4.38;;;;;;;16.98;85.86;100632.53;5069127;28;20020;-62
2023/09/20 03:23:04;;;;;;;8.63;4.10;;;;;;;16.88;85.71;100615.56;5059797;28;20091;-65
2023/09/20 03:25:36;;;;;;;;;;;;;;;17.08;84.84;100633.34;5052247;28;20047;-63
2023/09/20 03:28:08;;;;;;;9.68;4.15;;;;;;;16.89;86.32;100628.03;5052462;28;20000;-62
2023/09/20 03:30:34;;;;;;;9.45;4.45;;;;;;;16.90;86.43;100622.47;5054913;28;20447;-63
2023/09/20 03:33:00;;;;;;;14.38;4.50;;;;;;;16.86;86.21;100631.00;5035652;28;20021;-62
2023/09/20 03:35:30;;;;;;;10.45;4.03;;;;;;;16.78;86.75;100631.69;5051714;28;20029;-63
2023/09/20 03:37:55;;;;;;;9.80;3.78;;;;;;;16.74;86.92;100630.25;5054588;28;20052;-63
2023/09/20 03:40:22;;;;;;;7.80;3.88;;;;;;;16.72;87.45;100642.97;5062167;28;20476;-62
2023/09/20 03:42:49;;;;;;;8.02;3.88;;;;;;;16.70;87.43;100639.56;5058890;28;20016;-63
2023/09/20 03:45:16;;;;;;;10.88;4.55;;;;;;;16.66;87.73;100632.78;5043276;28;20028;-63
2023/09/20 03:47:57;;;;;;;9.15;4.22;;;;;;;16.71;87.79;100635.91;5039126;28;20032;-62
2023/09/20 03:50:22;;;;;;;9.73;4.20;;;;;;;16.65;87.96;100636.47;5053133;28;20037;-62
2023/09/20 03:52:48;;;;;;;7.32;3.67;;;;;;;16.60;87.72;100623.47;5067113;28;20468;-63
2023/09/20 03:55:14;;;;;;;9.63;3.90;;;;;;;16.57;88.10;100638.03;5053753;28;20024;-63
2023/09/20 03:57:40;;;;;;;9.85;4.50;;;;;;;16.55;88.39;100634.63;5037505;28;20021;-63
2023/09/20 04:00:18;;;;;;;9.85;4.30;;;;;;;16.58;88.60;100630.81;5037599;28;20065;-63
2023/09/20 04:02:48;;;;;;;9.23;3.97;;;;;;;16.47;88.89;100629.13;5047964;28;20075;-63
2023/09/20 04:05:16;;;;;;;8.73;4.25;;;;;;;16.38;89.38;100627.25;5033397;28;20480;-63
2023/09/20 04:07:44;;;;;;;14.05;4.20;;;;;;;16.37;89.60;100630.09;5026677;28;20025;-64
2023/09/20 04:10:10;;;;;;;7.38;4.13;;;;;;;16.35;89.83;100631.09;5033860;28;20396;-62
2023/09/20 04:12:36;;;;;;;10.02;4.35;;;;;;;16.30;90.02;100636.03;5040377;28;20029;-62
2023/09/20 04:15:04;;;;;;;9.73;4.65;;;;;;;16.29;90.29;100625.41;5027801;28;20036;-62
2023/09/20 04:17:32;;;;;;;10.05;4.40;;;;;;;16.29;90.23;100620.88;5057491;28;20021;-62
2023/09/20 04:19:58;;;;;;;9.55;4.82;;;;;;;16.27;90.16;100617.50;5015991;28;20476;-62
2023/09/20 04:22:23;;;;;;;9.52;4.22;;;;;;;16.31;90.51;100616.25;5047713;28;20033;-62
2023/09/20 04:24:48;;;;;;;6.47;4.30;;;;;;;16.27;90.53;100616.66;5050891;28;20016;-62
2023/09/20 04:27:15;;;;;;;11.77;4.60;;;;;;;16.25;90.43;100618.63;5052840;28;20021;-62
2023/09/20 04:29:42;;;;;;;7.30;3.95;;;;;;;16.22;90.72;100613.56;5059817;28;20039;-62
2023/09/20 04:32:07;;;;;;;6.95;4.15;;;;;;;16.18;91.17;100613.00;5052065;28;20056;-62
2023/09/20 04:34:32;;;;;;;8.00;4.35;;;;;;;16.17;91.17;100602.38;5048673;28;20359;-62
2023/09/20 04:36:58;;;;;;;8.98;4.18;;;;;;;16.19;91.37;100600.41;5051171;28;20059;-63
2023/09/20 04:39:24;;;;;;;12.07;4.47;;;;;;;16.15;91.50;100593.59;5049235;28;20021;-62
2023/09/20 04:41:51;;;;;;;7.25;4.53;;;;;;;16.15;91.79;100597.16;5033983;28;20017;-62
2023/09/20 04:44:18;;;;;;;9.07;4.60;;;;;;;16.12;91.81;100587.56;5046290;28;20098;-62
2023/09/20 04:46:44;;;;;;;12.77;5.10;;;;;;;16.12;92.03;100592.06;5052228;28;20025;-63
2023/09/20 04:49:10;;;;;;;8.35;3.85;;;;;;;16.08;92.17;100594.16;5049797;28;20106;-63
2023/09/20 04:51:37;;;;;;;9.57;4.47;;;;;;;16.09;92.25;100593.19;5053765;28;20059;-62
2023/09/20 04:54:04;;;;;;;7.90;3.95;;;;;;;16.06;92.42;100596.16;5063559;28;20559;-63
2023/09/20 04:56:30;;;;;;;8.02;4.70;;;;;;;15.97;93.07;100599.69;5062162;28;20098;-63
2023/09/20 04:58:57;;;;;;;9.32;4.50;;;;;;;16.07;92.89;100592.47;5037551;28;20477;-63
2023/09/20 05:01:24;;;;;;;11.82;4.90;;;;;;;16.00;93.14;100591.34;5053670;28;20115;-62
2023/09/20 05:03:50;;;;;;;10.82;4.40;;;;;;;15.98;93.37;100585.25;5044039;28;20037;-63
2023/09/20 05:06:20;;;;;;;9.27;4.22;;;;;;;16.08;93.13;100587.97;5048454;28;20025;-62
2023/09/20 05:08:46;;;;;;;7.40;4.30;;;;;;;16.06;92.89;100581.88;5060212;28;20032;-63
2023/09/20 05:11:13;;;;;;;10.13;4.57;;;;;;;16.00;93.14;100583.31;5061183;28;20035;-62
2023/09/20 05:13:39;;;;;;;12.40;4.63;;;;;;;16.04;93.12;100581.19;5061082;28;20458;-63
2023/09/20 05:16:05;;;;;;;10.68;4.05;;;;;;;15.98;93.09;100566.50;5061609;28;20487;-62
2023/09/20 05:18:30;;;;;;;11.13;4.60;;;;;;;15.99;93.37;100581.59;5051447;28;20036;-63
2023/09/20 05:20:56;;;;;;;9.75;4.50;;;;;;;16.02;93.38;100593.88;5061296;28;20024;-62
2023/09/20 05:23:22;;;;;;;7.93;4.30;;;;;;;15.95;93.76;100588.22;5058184;28;20028;-63
2023/09/20 05:25:48;;;;;;;11.15;5.47;;;;;;;15.96;94.05;100597.13;5048149;28;20020;-62
2023/09/20 05:28:15;;;;;;;13.88;5.53;;;;;;;15.98;94.06;100598.69;5051862;28;20013;-63
2023/09/20 05:30:41;;;;;;;12.77;5.43;;;;;;;15.94;94.20;100589.19;5062979;28;20100;-63
2023/09/20 05:33:07;;;;;;;10.95;4.93;;;;;;;16.01;93.71;100582.31;5049333;28;20031;-62
2023/09/20 05:35:33;;;;;;;8.43;4.43;;;;;;;15.92;94.10;100568.88;5051346;28;20043;-62
2023/09/20 05:37:59;;;;;;;10.20;4.90;;;;;;;15.97;94.30;100588.94;5046210;28;20029;-63
2023/09/20 05:40:28;;;;;;;8.68;4.57;;;;;;;16.01;94.15;100582.31;5055005;28;20024;-62
2023/09/20 05:42:53;;;;;;;8.75;4.80;;;;;;;16.00;94.44;100579.75;5030848;28;20047;-63
2023/09/20 05:45:26;;;;;;;9.65;4.35;;;;;;;16.05;94.35;100577.50;5040542;28;20057;-63
2023/09/20 05:47:52;;;;;;;9.70;4.50;;;;;;;16.01;94.38;100571.56;5048951;28;20107;-63
2023/09/20 05:50:23;;;;;;;8.70;4.95;;;;;;;16.05;94.22;100572.13;5062020;28;20080;-63
2023/09/20 05:52:51;;;;;;;10.60;4.53;;;;;;;16.02;94.68;100575.09;5053551;28;20028;-62
2023/09/20 05:55:18;;;;;;;11.45;4.78;;;;;;;16.01;94.61;100576.09;5055629;28;20059;-62
2023/09/20 05:57:45;;;;;;;8.80;4.53;;;;;;;16.00;94.74;100569.88;5057643;28;20051;-62
2023/09/20 06:00:16;;;;;;;9.55;4.35;;;;;;;16.03;94.81;100580.34;5050299;28;20033;-63
2023/09/20 06:02:43;;;;;;;6.18;4.28;;;;;;;16.00;95.40;100583.31;5058516;28;20492;-63
2023/09/20 06:05:11;;;;;;;13.40;5.60;;;;;;;16.03;95.11;100587.50;5040125;28;20082;-63
2023/09/20 06:07:36;;;;;;;8.82;4.20;;;;;;;16.09;95.17;100584.31;5046390;28;20566;-63
2023/09/20 06:10:04;;;;;;;9.63;4.43;;;;;;;16.07;95.30;100583.59;5059412;28;20120;-63
2023/09/20 06:12:30;;;;;;;7.07;4.25;;;;;;;16.09;95.22;100570.91;5056421;28;20468;-63
2023/09/20 06:14:55;;;;;;;7.93;4.47;;;;;;;16.10;95.47;100573.41;5058204;28;20029;-62
2023/09/20 06:17:20;;;;;;;7.78;4.43;;;;;;;16.07;95.80;100568.34;5051365;28;20020;-62
2023/09/20 06:19:46;;;;;;;8.77;4.65;;;;;;;16.09;95.63;100565.53;5055685;28;20094;-63
2023/09/20 06:22:13;;;;;;;6.15;4.13;;;;;;;16.13;95.83;100564.25;5047681;28;20388;-62
2023/09/20 06:24:38;;;;;;;7.57;4.72;;;;;;;16.13;95.82;100558.88;5028465;28;20048;-62
2023/09/20 06:27:04;;;;;;;11.32;4.65;;;;;;;16.16;95.57;100568.50;5033552;28;20020;-63
2023/09/20 06:29:29;;;;;;;7.70;4.47;;;;;;;16.13;95.94;100557.03;5057198;28;20036;-62
2023/09/20 06:31:55;;;;;;;7.22;4.30;;;;;;;16.23;96.06;100569.63;5056471;28;20018;-62
2023/09/20 06:34:22;;;;;;;7.43;3.85;;;;;;;16.26;95.91;100563.97;5058713;28;20120;-63
2023/09/20 06:36:47;;;;;;;11.95;4.32;;;;;;;16.31;95.47;100572.44;5031525;28;20029;-63
2023/09/20 06:39:13;;;;;;;7.35;4.25;;;;;;;16.29;95.71;100571.72;5059674;28;20031;-63
2023/09/20 06:41:42;;;;;;;6.72;4.10;;;;;;;16.30;95.55;100562.72;5043842;28;20013;-63
2023/09/20 06:44:07;;;;;;;8.20;4.07;;;;;;;16.35;96.05;100566.69;5053720;28;20032;-62
2023/09/20 06:46:34;;;;;;;7.55;4.32;;;;;;;16.37;95.99;100554.94;5053976;28;20021;-62
2023/09/20 06:49:02;;;;;;;9.18;4.10;;;;;;;16.48;95.11;100569.06;5051496;28;20107;-62
2023/09/20 06:51:27;;;;;;;7.55;3.85;;;;;;;16.54;95.12;100568.50;5054744;28;20021;-62
2023/09/20 06:53:58;;;;;;;6.97;4.00;;;;;;;16.58;95.27;100575.25;5070375;28;20069;-62
2023/09/20 06:56:25;;;;;;;8.52;4.07;;;;;;;16.58;95.19;100567.22;5057816;28;20017;-63
2023/09/20 06:58:52;;;;;;;8.73;3.92;;;;;;;16.68;94.69;100575.28;5044259;28;20479;-63
2023/09/20 07:01:18;;;;;;;6.65;3.75;;;;;;;16.70;94.50;100573.28;5059228;28;20116;-62
2023/09/20 07:03:45;;;;;;;6.88;4.00;;;;;;;16.60;93.90;100534.84;5054629;28;20598;-63
2023/09/20 07:06:11;;;;;;;6.00;3.78;;;;;;;16.76;94.13;100575.41;5059871;28;20067;-62
2023/09/20 07:08:37;;;;;;;6.80;4.15;;;;;;;16.81;93.60;100566.94;5054808;28;20036;-62
2023/09/20 07:11:05;;;;;;;11.32;4.40;;;;;;;16.83;93.23;100572.19;5064210;28;20441;-63
2023/09/20 07:13:34;;;;;;;6.40;3.50;;;;;;;16.87;93.42;100565.53;5027722;28;20499;-63
2023/09/20 07:16:04;;;;;;;7.18;3.90;;;;;;;16.90;93.02;100575.97;5081950;28;20107;-63
2023/09/20 07:18:30;;;;;;;9.15;4.80;;;;;;;16.92;93.49;100563.25;5034086;28;20024;-63
2023/09/20 07:20:56;;;;;;;8.52;4.80;;;;;;;16.94;93.72;100548.69;5055330;28;20044;-62
2023/09/20 07:23:22;;;;;;;8.55;4.40;;;;;;;17.03;92.28;100565.78;5052289;28;20439;-62
2023/09/20 07:25:49;;;;;;;8.80;4.25;;;;;;;17.06;92.19;100560.13;5054120;28;20042;-62
2023/09/20 07:28:16;;;;;;;8.68;4.28;;;;;;;17.11;92.25;100563.19;5054926;28;20021;-63
2023/09/20 07:30:45;;;;;;;6.45;4.22;;;;;;;17.17;92.69;100567.13;5066685;28;20040;-62
2023/09/20 07:33:14;;;;;;;7.82;4.47;;;;;;;17.22;91.50;100560.31;5054057;28;20245;-62
2023/09/20 07:35:49;;;;;;;8.90;4.25;;;;;;;17.27;91.78;100567.13;5060188;28;20029;-63
2023/09/20 07:38:20;;;;;;;6.60;4.03;;;;;;;17.30;91.31;100570.34;5058379;28;20097;-63
2023/09/20 07:40:50;;;;;;;7.30;4.28;;;;;;;17.34;91.49;100562.84;5042070;28;20517;-62
2023/09/20 07:43:17;;;;;;;5.80;4.00;;;;;;;17.37;91.00;100568.75;5054961;28;20059;-62
2023/09/20 07:45:43;;;;;;;8.18;4.20;;;;;;;17.38;91.40;100569.59;5057804;28;20049;-63
2023/09/20 07:48:17;;;;;;;8.70;3.90;;;;;;;17.42;90.56;100579.09;5062037;28;20068;-63
2023/09/20 07:50:50;;;;;;;5.60;4.00;;;;;;;17.45;90.63;100573.41;5063500;28;20046;-63
2023/09/20 07:53:17;;;;;;;6.15;3.85;;;;;;;17.47;89.76;100566.88;5065155;28;20040;-62
2023/09/20 07:55:44;;;;;;;7.07;4.50;;;;;;;17.49;90.09;100567.56;5062772;28;20025;-63
2023/09/20 07:58:14;;;;;;;9.98;4.65;;;;;;;17.48;89.78;100571.25;5070501;28;20545;-62
2023/09/20 08:00:52;;;;;;;6.28;4.20;;;;;;;17.52;89.75;100558.34;5055165;28;20031;-63
2023/09/20 08:03:21;;;;;;;10.77;4.57;;;;;;;17.54;89.58;100563.59;5035518;28;20032;-63
2023/09/20 08:05:51;;;;;;;7.60;4.22;;;;;;;17.63;89.64;100573.47;5039556;28;20056;-62
2023/09/20 08:08:17;;;;;;;15.93;5.75;;;;;;;17.74;89.02;100570.56;5052808;28;20070;-63
2023/09/20 08:10:44;;;;;;;8.93;4.50;;;;;;;17.69;88.83;100562.94;5060664;28;20379;-63
2023/09/20 08:13:11;;;;;;;7.55;4.75;;;;;;;17.75;89.17;100569.56;5071496;28;20078;-63
2023/09/20 08:15:42;;;;;;;8.77;4.82;;;;;;;17.86;88.62;100571.25;5063638;28;20108;-63
2023/09/20 08:20:56;;;;;;;7.93;3.67;;;;;;;18.14;87.56;100578.28;5049014;28;20044;-63
2023/09/20 09:02:08;;;;;;;8.25;4.45;;;;;;;19.04;81.71;100599.78;5052608;28;20044;-62
2023/09/20 09:04:36;;;;;;;5.43;3.75;;;;;;;19.02;82.00;100589.16;5067787;28;20545;-62
2023/09/20 09:07:01;;;;;;;7.00;3.90;;;;;;;19.00;83.95;100576.84;5052504;28;20021;-63
2023/09/20 09:09:26;;;;;;;6.07;3.80;;;;;;;19.05;81.79;100571.81;5051695;28;20024;-63
2023/09/20 09:11:57;;;;;;;8.10;4.53;;;;;;;19.01;82.86;100581.25;5052394;28;20033;-63
2023/09/20 09:14:24;;;;;;;8.45;3.85;;;;;;;18.98;82.63;100571.63;5052241;28;20021;-63
2023/09/20 09:17:01;;;;;;;9.15;4.30;;;;;;;18.91;82.89;100570.53;5052234;28;20017;-62
2023/09/20 09:19:26;;;;;;;6.68;3.65;;;;;;;19.01;82.89;100582.09;5067545;28;20025;-63
2023/09/20 09:21:52;;;;;;;6.85;4.00;;;;;;;19.03;82.10;100573.81;5052188;28;20495;-63
2023/09/20 09:24:17;;;;;;;5.22;3.58;;;;;;;19.00;81.83;100569.63;5033993;28;20025;-63
2023/09/20 09:26:46;;;;;;;9.23;4.30;;;;;;;19.05;82.20;100572.66;5052389;28;20032;-63
2023/09/20 09:29:18;;;;;;;7.90;3.80;;;;;;;19.13;82.46;100579.13;5067414;28;20074;-62
2023/09/20 09:31:50;;;;;;;6.25;3.92;;;;;;;19.19;81.39;100578.50;5051988;28;20650;-63
2023/09/20 09:34:18;;;;;;;6.85;3.42;;;;;;;19.24;81.31;100573.47;5052084;28;20032;-62
2023/09/20 09:36:44;;;;;;;6.40;3.63;;;;;;;19.33;80.82;100572.50;5052027;28;20480;-62
2023/09/20 09:39:14;;;;;;;5.40;3.25;;;;;;;19.45;79.97;100554.19;5051601;28;20027;-63
2023/09/20 09:41:46;;;;;;;5.85;3.65;;;;;;;19.54;80.16;100572.09;5034217;28;20393;-63
2023/09/20 09:44:13;;;;;;;5.65;4.05;;;;;;;19.54;79.13;100553.22;5067053;28;20558;-63
2023/09/20 09:46:39;;;;;;;5.38;3.83;;;;;;;19.68;79.21;100571.53;5052091;28;20035;-62
2023/09/20 09:49:10;;;;;;;6.70;3.33;;;;;;;19.68;79.54;100566.13;5051551;28;20041;-62
2023/09/20 09:51:42;;;;;;;6.10;3.65;;;;;;;19.72;78.78;100566.63;5051858;28;20044;-62
2023/09/20 09:54:08;;;;;;;5.53;3.25;;;;;;;19.83;78.43;100569.03;5051228;28;20025;-63
2023/09/20 09:56:33;;;;;;;5.68;3.30;;;;;;;19.81;78.09;100548.63;5051669;28;20029;-63
2023/09/20 09:58:59;;;;;;;6.80;3.45;;;;;;;20.02;78.20;100554.41;5051568;28;20523;-63
2023/09/20 10:01:28;;;;;;;6.03;3.97;;;;;;;20.04;76.84;100552.41;5052004;28;20147;-63
2023/09/20 10:04:00;;;;;;;7.32;3.70;;;;;;;20.10;75.76;100540.09;5051421;28;20021;-63
2023/09/20 10:06:28;;;;;;;5.25;3.22;;;;;;;20.19;77.07;100561.53;5051721;28;20103;-62
2023/09/20 10:08:54;;;;;;;7.60;3.33;;;;;;;20.29;75.13;100549.72;5033252;28;20021;-63
2023/09/20 10:11:23;;;;;;;5.25;3.30;;;;;;;20.26;74.66;100547.34;5051385;28;20391;-62
2023/09/20 10:13:52;;;;;;;4.65;3.20;;;;;;;20.37;75.28;100538.94;5051499;28;20033;-62
2023/09/20 10:16:18;;;;;;;6.15;3.22;;;;;;;20.54;74.80;100546.06;5051688;28;20108;-62
2023/09/20 10:18:52;;;;;;;7.32;3.17;;;;;;;20.85;74.36;100546.22;5069474;28;20064;-62
2023/09/20 10:21:23;;;;;;;5.10;3.28;;;;;;;21.11;73.08;100542.44;5054919;28;20040;-62
2023/09/20 10:23:53;;;;;;;4.38;3.03;;;;;;;21.23;70.41;100546.44;5056750;28;20043;-63
2023/09/20 10:26:18;;;;;;;6.75;3.53;;;;;;;21.31;69.23;100535.59;5054401;28;20395;-63
2023/09/20 10:28:45;;;;;;;4.63;2.70;;;;;;;21.41;69.95;100540.84;5041492;28;20039;-62
2023/09/20 10:31:15;;;;;;;3.95;2.78;;;;;;;21.38;70.59;100530.38;5035861;28;20455;-62
2023/09/20 10:33:48;;;;;;;5.70;3.00;;;;;;;21.53;68.56;100542.16;5051379;28;20022;-62
2023/09/20 10:36:27;;;;;;;4.82;2.85;;;;;;;21.60;69.01;100531.47;5068389;28;20494;-63
2023/09/20 10:39:31;;;;;;;6.57;2.78;;;;;;;21.66;67.98;100535.34;5054643;28;20487;-63
2023/09/20 10:42:08;;;;;;;4.32;2.60;;;;;;;21.60;67.13;100536.88;4991215;28;20535;-63
2023/09/20 10:44:38;;;;;;;4.05;2.58;;;;;;;21.50;67.60;100514.59;4978147;28;20030;-62
2023/09/20 10:47:15;;;;;;;3.10;1.92;;;;;;;21.51;68.58;100510.88;5031006;28;20467;-63
2023/09/20 10:49:52;;;;;;;3.72;2.30;;;;;;;21.55;68.34;100515.75;5054610;28;20044;-63
2023/09/20 10:52:37;;;;;;;3.15;2.47;;;;;;;21.66;69.49;100511.81;5053388;28;20445;-63
2023/09/20 10:55:14;;;;;;;3.75;2.70;;;;;;;21.73;67.85;100509.22;5063925;28;20031;-63
2023/09/20 10:57:42;;;;;;;5.38;2.47;;;;;;;21.66;67.50;100516.38;5074600;28;20033;-63
2023/09/20 11:00:07;;;;;;;6.22;2.20;;;;;;;21.71;67.25;100511.28;5056824;28;20051;-62
2023/09/20 11:02:33;;;;;;;3.45;2.10;;;;;;;21.66;66.65;100516.38;5074892;28;20040;-63
2023/09/20 11:05:04;;;;;;;5.30;2.20;;;;;;;21.45;67.07;100511.59;5056862;28;20498;-62
2023/09/20 11:07:30;;;;;;;4.85;2.30;;;;;;;21.42;67.68;100501.97;5074701;28;20036;-63
2023/09/20 11:09:55;;;;;;;4.18;2.40;;;;;;;21.48;68.28;100487.72;5056216;28;20021;-62
2023/09/20 11:12:20;;;;;;;5.28;2.20;;;;;;;21.57;68.49;100488.53;5074753;28;20558;-63
2023/09/20 11:14:47;;;;;;;4.80;2.42;;;;;;;21.57;69.01;100506.63;5074637;28;20020;-62
2023/09/20 11:17:16;;;;;;;2.97;2.42;;;;;;;21.51;67.76;100513.59;5074795;28;20078;-63
2023/09/20 11:19:42;;;;;;;4.65;2.78;;;;;;;21.59;66.68;100500.03;5074696;28;20085;-63
2023/09/20 11:22:08;;;;;;;3.80;2.20;;;;;;;21.80;65.93;100507.53;5074479;28;20108;-63
2023/09/20 11:24:36;;;;;;;4.03;2.28;;;;;;;21.99;64.29;100496.22;5055880;28;20036;-63
2023/09/20 11:27:02;;;;;;;4.50;2.40;;;;;;;22.03;64.50;100490.44;5056530;28;20032;-63
2023/09/20 11:29:27;;;;;;;4.60;2.67;;;;;;;22.15;65.69;100499.84;5056553;28;20032;-62
2023/09/20 11:31:58;;;;;;;4.30;2.30;;;;;;;21.96;64.15;100501.16;5056266;28;20028;-62
2023/09/20 11:34:25;;;;;;;4.93;2.10;;;;;;;21.73;64.58;100491.13;5056234;28;20108;-63
2023/09/20 11:36:53;;;;;;;4.45;2.40;;;;;;;21.41;65.20;100486.72;5074267;28;20052;-63
2023/09/20 11:39:27;;;;;;;5.10;2.35;;;;;;;21.16;66.90;100480.56;5055692;28;20493;-62
2023/09/20 11:42:00;;;;;;;4.38;2.20;;;;;;;21.29;67.49;100507.88;5074180;28;20028;-62
2023/09/20 11:44:26;;;;;;;7.55;2.70;;;;;;;21.28;67.71;100499.94;5056167;28;20028;-63
2023/09/20 11:46:57;;;;;;;3.78;2.40;;;;;;;21.33;67.04;100505.69;5056327;28;20070;-63
2023/09/20 11:49:24;;;;;;;4.63;2.47;;;;;;;21.24;68.08;100488.66;5033850;28;20048;-62
2023/09/20 11:51:50;;;;;;;3.70;2.50;;;;;;;21.43;66.41;100502.78;5034010;28;20409;-62
2023/09/20 11:54:15;;;;;;;7.25;2.80;;;;;;;21.81;66.43;100490.25;5033276;28;20036;-62
2023/09/20 11:56:47;;;;;;;3.97;2.58;;;;;;;22.01;63.92;100487.91;5016541;28;20021;-62
2023/09/20 11:59:18;;;;;;;4.93;2.63;;;;;;;21.93;63.52;100509.63;5033947;28;20029;-63
2023/09/20 12:01:45;;;;;;;6.43;2.50;;;;;;;21.74;63.43;100492.81;5049232;28;20119;-62
2023/09/20 12:04:11;;;;;;;6.03;2.35;;;;;;;21.58;65.07;100492.06;5033949;28;20403;-63
2023/09/20 12:06:37;;;;;;;2.95;2.10;;;;;;;21.71;64.96;100490.47;5049184;28;20105;-63
2023/09/20 12:09:05;;;;;;;5.60;2.60;;;;;;;21.67;65.20;100499.13;5033016;28;20025;-63